createdAt,value
2018-03-16T00:00:01.787Z,71.03
2018-03-16T00:02:29.953Z,66.53
2018-03-16T00:04:58.158Z,72.10
2018-03-16T00:07:27.514Z,66.43
2018-03-16T00:09:55.785Z,62.93
2018-03-16T00:12:24.096Z,71.17
2018-03-16T00:14:53.315Z,62.53
2018-03-16T00:17:21.502Z,67.37
2018-03-16T00:19:49.757Z,64.10
2018-03-16T00:22:29.847Z,67.90
2018-03-16T00:24:58.434Z,73.40
2018-03-16T00:27:27.047Z,66.70
2018-03-16T00:29:55.366Z,65.03
2018-03-16T00:32:23.743Z,65.30
2018-03-16T00:34:51.889Z,73.73
2018-03-16T00:37:20.834Z,68.47
2018-03-16T00:39:49.114Z,63.83
2018-03-16T00:42:17.270Z,79.10
2018-03-16T00:44:45.468Z,67.27
2018-03-16T00:47:13.769Z,63.10
2018-03-16T00:49:41.914Z,65.97
2018-03-16T00:52:10.225Z,66.70
2018-03-16T00:54:38.468Z,69.90
2018-03-16T00:57:06.697Z,70.57
2018-03-16T00:59:35.627Z,68.07
2018-03-16T01:02:03.780Z,66.83
2018-03-16T01:04:31.942Z,69.93
2018-03-16T01:07:00.147Z,66.53
2018-03-16T01:09:28.441Z,77.23
2018-03-16T01:11:56.605Z,71.53
2018-03-16T01:14:24.962Z,71.47
2018-03-16T01:16:54.733Z,76.23
2018-03-16T01:19:22.890Z,77.63
2018-03-16T01:21:51.183Z,87.33
2018-03-16T01:24:20.539Z,84.57
2018-03-16T01:26:48.900Z,73.73
2018-03-16T01:29:17.180Z,68.10
2018-03-16T01:31:46.372Z,61.97
2018-03-16T01:34:14.607Z,65.47
2018-03-16T01:36:42.890Z,77.77
2018-03-16T01:39:11.951Z,63.83
2018-03-16T01:41:40.229Z,67.70
2018-03-16T01:44:09.222Z,63.10
2018-03-16T01:46:37.475Z,61.30
2018-03-16T01:49:06.235Z,64.73
2018-03-16T01:51:35.682Z,61.57
2018-03-16T01:54:03.825Z,62.13
2018-03-16T01:56:32.087Z,63.43
2018-03-16T01:59:00.279Z,61.77
2018-03-16T02:01:28.454Z,57.47
2018-03-16T02:03:56.598Z,62.73
2018-03-16T02:06:25.514Z,60.47
2018-03-16T02:08:53.655Z,61.50
2018-03-16T02:11:22.584Z,65.40
2018-03-16T02:13:50.858Z,64.97
2018-03-16T02:16:19.024Z,69.13
2018-03-16T02:18:47.178Z,64.57
2018-03-16T02:21:18.411Z,56.80
2018-03-16T02:23:46.952Z,57.40
2018-03-16T02:26:15.183Z,54.70
2018-03-16T02:28:44.263Z,52.17
2018-03-16T02:31:13.335Z,48.63
2018-03-16T02:33:42.013Z,42.87
2018-03-16T02:36:10.193Z,48.70
2018-03-16T02:38:38.503Z,49.27
2018-03-16T02:41:07.557Z,47.63
2018-03-16T02:43:35.743Z,45.90
2018-03-16T02:46:03.890Z,49.77
2018-03-16T02:48:32.046Z,45.87
2018-03-16T02:51:00.203Z,39.43
2018-03-16T02:53:28.373Z,39.80
2018-03-16T02:55:56.512Z,42.73
2018-03-16T02:58:24.687Z,39.37
2018-03-16T03:00:52.808Z,39.67
2018-03-16T03:03:20.947Z,45.67
2018-03-16T03:05:49.837Z,42.40
2018-03-16T03:08:17.968Z,45.70
2018-03-16T03:10:46.222Z,42.87
2018-03-16T03:13:14.518Z,42.47
2018-03-16T03:15:42.654Z,49.97
2018-03-16T03:18:11.603Z,45.37
2018-03-16T03:20:39.776Z,46.17
2018-03-16T03:23:08.004Z,46.13
2018-03-16T03:25:36.927Z,47.23
2018-03-16T03:28:05.147Z,44.10
2018-03-16T03:30:34.154Z,44.17
2018-03-16T03:33:03.263Z,47.40
2018-03-16T03:35:31.997Z,48.13
2018-03-16T03:38:00.235Z,50.57
2018-03-16T03:40:28.492Z,46.43
2018-03-16T03:42:57.429Z,49.40
2018-03-16T03:45:25.720Z,45.50
2018-03-16T03:47:53.936Z,50.23
2018-03-16T03:50:23.042Z,50.40
2018-03-16T03:52:51.210Z,47.80
2018-03-16T03:55:20.104Z,47.23
2018-03-16T03:57:48.372Z,48.13
2018-03-16T04:00:17.271Z,47.70
2018-03-16T04:02:45.411Z,51.97
2018-03-16T04:05:13.725Z,47.13
2018-03-16T04:07:41.889Z,46.57
2018-03-16T04:10:10.795Z,44.57
2018-03-16T04:12:38.981Z,44.10
2018-03-16T04:15:07.250Z,41.73
2018-03-16T04:17:36.230Z,41.27
2018-03-16T04:20:04.408Z,41.57
2018-03-16T04:22:33.573Z,43.00
2018-03-16T04:25:01.980Z,38.57
2018-03-16T04:27:30.913Z,38.67
2018-03-16T04:29:59.056Z,40.33
2018-03-16T04:32:27.223Z,48.17
2018-03-16T04:34:55.668Z,48.37
2018-03-16T04:37:25.322Z,46.83
2018-03-16T04:39:53.595Z,44.70
2018-03-16T04:42:23.210Z,45.53
2018-03-16T04:44:51.367Z,52.10
2018-03-16T04:47:19.535Z,48.40
2018-03-16T04:49:47.710Z,51.67
2018-03-16T04:52:16.027Z,50.83
2018-03-16T04:54:44.173Z,47.57
2018-03-16T04:57:12.406Z,44.23
2018-03-16T04:59:40.619Z,45.83
2018-03-16T05:02:09.061Z,43.03
2018-03-16T05:04:38.146Z,38.00
2018-03-16T05:07:06.452Z,37.33
2018-03-16T05:09:35.360Z,34.97
2018-03-16T05:12:03.539Z,36.87
2018-03-16T05:14:31.900Z,35.43
2018-03-16T05:17:00.045Z,39.13
2018-03-16T05:19:28.270Z,37.57
2018-03-16T05:21:56.420Z,36.07
2018-03-16T05:24:24.578Z,34.73
2018-03-16T05:26:57.631Z,31.90
2018-03-16T05:29:25.892Z,34.63
2018-03-16T05:31:54.063Z,33.97
2018-03-16T05:34:22.663Z,32.37
2018-03-16T05:36:50.819Z,33.67
2018-03-16T05:39:18.961Z,35.93
2018-03-16T05:41:47.149Z,35.53
2018-03-16T05:44:15.572Z,36.73
2018-03-16T05:46:43.794Z,36.37
2018-03-16T05:49:12.716Z,35.17
2018-03-16T05:51:40.923Z,34.50
2018-03-16T05:54:09.090Z,32.00
2018-03-16T05:56:37.272Z,29.07
2018-03-16T05:59:05.467Z,31.90
2018-03-16T06:01:33.693Z,31.40
2018-03-16T06:04:01.942Z,28.77
2018-03-16T06:06:31.148Z,33.87
2018-03-16T06:08:59.424Z,30.67
2018-03-16T06:11:27.753Z,32.20
2018-03-16T06:13:56.000Z,30.40
2018-03-16T06:16:24.234Z,34.73
2018-03-16T06:18:52.469Z,30.20
2018-03-16T06:21:20.653Z,29.53
2018-03-16T06:23:48.964Z,33.60
2018-03-16T06:26:17.313Z,33.77
2018-03-16T06:28:45.450Z,30.40
2018-03-16T06:31:13.739Z,33.03
2018-03-16T06:33:42.802Z,30.70
2018-03-16T06:36:10.963Z,30.97
2018-03-16T06:38:39.132Z,31.17
2018-03-16T06:41:07.717Z,31.73
2018-03-16T06:43:35.984Z,31.70
2018-03-16T06:46:06.241Z,30.30
2018-03-16T06:48:34.407Z,31.80
2018-03-16T06:51:02.656Z,30.90
2018-03-16T06:53:31.940Z,32.17
2018-03-16T06:56:00.184Z,31.13
2018-03-16T06:58:28.541Z,35.57
2018-03-16T07:00:56.710Z,35.13
2018-03-16T07:03:24.872Z,31.10
2018-03-16T07:05:53.148Z,30.27
2018-03-16T07:08:21.347Z,31.50
2018-03-16T07:10:49.678Z,27.73
2018-03-16T07:13:17.932Z,31.50
2018-03-16T07:15:46.245Z,31.90
2018-03-16T07:18:14.401Z,30.60
2018-03-16T07:20:43.516Z,34.73
2018-03-16T07:23:11.741Z,31.30
2018-03-16T07:25:40.691Z,37.90
2018-03-16T07:28:09.028Z,36.83
2018-03-16T07:30:37.174Z,35.73
2018-03-16T07:33:05.355Z,34.67
2018-03-16T07:35:34.220Z,33.30
2018-03-16T07:38:02.379Z,28.97
2018-03-16T07:40:30.531Z,34.03
2018-03-16T07:42:59.573Z,83.40
2018-03-16T07:45:33.446Z,38.53
2018-03-16T07:48:01.582Z,41.83
2018-03-16T07:50:29.896Z,33.83
2018-03-16T07:52:58.649Z,35.67
2018-03-16T07:55:27.682Z,29.93
2018-03-16T07:57:56.645Z,30.70
2018-03-16T08:00:25.570Z,28.80
2018-03-16T08:02:53.926Z,41.07
2018-03-16T08:05:22.847Z,29.60
2018-03-16T08:07:51.122Z,32.13
2018-03-16T08:10:19.210Z,29.23
2018-03-16T08:12:47.591Z,26.67
2018-03-16T08:15:15.840Z,31.73
2018-03-16T08:17:43.941Z,27.77
2018-03-16T08:20:12.219Z,36.37
2018-03-16T08:22:40.520Z,31.97
2018-03-16T08:25:08.657Z,31.80
2018-03-16T08:27:37.013Z,36.57
2018-03-16T08:30:05.166Z,35.97
2018-03-16T08:32:34.075Z,34.37
2018-03-16T08:35:02.442Z,35.27
2018-03-16T08:37:31.359Z,33.83
2018-03-16T08:39:59.536Z,34.43
2018-03-16T08:42:27.683Z,34.23
2018-03-16T08:44:56.633Z,29.73
2018-03-16T08:47:24.778Z,26.40
2018-03-16T08:49:53.222Z,29.20
2018-03-16T08:52:22.341Z,25.73
2018-03-16T08:54:50.645Z,28.50
2018-03-16T08:57:18.906Z,26.93
2018-03-16T08:59:50.674Z,26.17
2018-03-16T09:02:18.906Z,29.70
2018-03-16T09:04:47.833Z,23.80
2018-03-16T09:07:16.027Z,28.23
2018-03-16T09:09:44.164Z,28.50
2018-03-16T09:12:12.312Z,29.20
2018-03-16T09:14:41.230Z,29.40
2018-03-16T09:17:09.390Z,24.67
2018-03-16T09:19:37.653Z,23.07
2018-03-16T09:22:06.587Z,25.03
2018-03-16T09:24:34.738Z,25.73
2018-03-16T09:27:02.882Z,26.10
2018-03-16T09:29:31.846Z,27.97
2018-03-16T09:32:00.074Z,30.23
2018-03-16T09:34:28.337Z,30.17
2018-03-16T09:36:57.262Z,30.63
2018-03-16T09:39:25.423Z,28.20
2018-03-16T09:41:53.603Z,29.97
2018-03-16T09:44:21.895Z,37.43
2018-03-16T09:46:50.056Z,28.43
2018-03-16T09:49:18.243Z,34.53
2018-03-16T09:51:46.712Z,29.03
2018-03-16T09:54:14.949Z,29.43
2018-03-16T09:56:43.864Z,31.63
2018-03-16T09:59:12.051Z,28.97
2018-03-16T10:01:40.209Z,24.93
2018-03-16T10:04:08.369Z,27.13
2018-03-16T10:06:36.586Z,24.60
2018-03-16T10:09:04.802Z,22.07
2018-03-16T10:11:32.990Z,21.10
2018-03-16T10:14:01.218Z,23.43
2018-03-16T10:16:29.526Z,25.77
2018-03-16T10:18:57.804Z,20.43
2018-03-16T10:21:26.114Z,21.27
2018-03-16T10:23:54.264Z,23.97
2018-03-16T10:26:22.443Z,21.73
2018-03-16T10:28:51.544Z,19.57
2018-03-16T10:31:20.476Z,19.67
2018-03-16T10:33:49.236Z,21.43
2018-03-16T10:36:17.418Z,20.57
2018-03-16T10:38:45.648Z,21.03
2018-03-16T10:41:13.879Z,24.60
2018-03-16T10:43:42.599Z,18.43
2018-03-16T10:46:10.737Z,17.13
2018-03-16T10:48:38.970Z,13.47
2018-03-16T10:51:07.142Z,19.20
2018-03-16T10:53:35.303Z,18.20
2018-03-16T10:56:03.562Z,15.83
2018-03-16T10:58:31.835Z,18.00
2018-03-16T11:01:00.016Z,17.53
2018-03-16T11:03:33.995Z,16.40
2018-03-16T11:06:02.279Z,15.03
2018-03-16T11:08:31.010Z,17.30
2018-03-16T11:10:59.925Z,13.97
2018-03-16T11:13:29.368Z,13.97
2018-03-16T11:15:57.506Z,14.00
2018-03-16T11:18:25.789Z,14.43
2018-03-16T11:20:53.936Z,12.97
2018-03-16T11:23:23.078Z,12.93
2018-03-16T11:25:51.379Z,11.83
2018-03-16T11:28:19.530Z,13.53
2018-03-16T11:30:47.710Z,11.30
2018-03-16T11:33:15.935Z,15.53
2018-03-16T11:35:44.551Z,14.60
2018-03-16T11:38:12.715Z,13.53
2018-03-16T11:40:40.880Z,13.47
2018-03-16T11:43:10.072Z,21.30
2018-03-16T11:45:38.972Z,14.40
2018-03-16T11:48:07.119Z,11.90
2018-03-16T11:50:35.386Z,11.33
2018-03-16T11:53:03.822Z,17.30
2018-03-16T11:55:32.193Z,10.70
2018-03-16T11:58:00.458Z,14.23
2018-03-16T12:00:28.737Z,14.43
2018-03-16T12:02:57.054Z,12.97
2018-03-16T12:05:25.284Z,11.97
2018-03-16T12:07:53.425Z,12.17
2018-03-16T12:10:21.724Z,12.67
2018-03-16T12:12:50.657Z,14.83
2018-03-16T12:15:18.821Z,9.50
2018-03-16T12:17:47.000Z,11.97
2018-03-16T12:20:15.152Z,12.57
2018-03-16T12:22:43.445Z,10.70
2018-03-16T12:25:11.636Z,15.57
2018-03-16T12:27:39.776Z,12.53
2018-03-16T12:30:08.870Z,12.30
2018-03-16T12:32:37.122Z,11.17
2018-03-16T12:35:06.062Z,12.40
2018-03-16T12:37:34.225Z,12.87
2018-03-16T12:40:02.679Z,14.57
2018-03-16T12:44:59.770Z,12.50
2018-03-16T12:47:27.937Z,9.27
2018-03-16T12:49:56.073Z,12.13
2018-03-16T12:52:24.238Z,14.57
2018-03-16T12:54:52.413Z,13.23
2018-03-16T12:57:20.568Z,13.23
2018-03-16T12:59:48.791Z,11.13
2018-03-16T13:02:17.566Z,13.23
2018-03-16T13:04:46.626Z,11.70
2018-03-16T13:07:14.876Z,11.00
2018-03-16T13:09:43.128Z,11.40
2018-03-16T13:12:11.289Z,12.00
2018-03-16T13:14:40.335Z,13.37
2018-03-16T13:17:08.496Z,11.33
2018-03-16T13:19:36.745Z,11.90
2018-03-16T13:22:05.020Z,11.27
2018-03-16T13:24:33.211Z,12.97
2018-03-16T13:27:01.428Z,12.23
2018-03-16T13:29:29.708Z,15.17
2018-03-16T13:31:57.979Z,17.20
2018-03-16T13:34:26.165Z,10.47
2018-03-16T13:36:54.433Z,14.97
2018-03-16T13:39:22.604Z,14.03
2018-03-16T13:41:50.829Z,11.90
2018-03-16T13:44:19.107Z,13.90
2018-03-16T13:46:47.277Z,12.10
2018-03-16T13:49:15.438Z,14.27
2018-03-16T13:51:44.465Z,11.13
2018-03-16T13:54:13.374Z,12.93
2018-03-16T13:56:41.525Z,11.93
2018-03-16T13:59:09.673Z,10.07
2018-03-16T14:01:38.789Z,11.60
2018-03-16T14:04:07.106Z,12.07
2018-03-16T14:06:35.275Z,11.00
2018-03-16T14:09:03.448Z,11.87
2018-03-16T14:11:31.608Z,12.10
2018-03-16T14:13:59.953Z,13.90
2018-03-16T14:16:28.107Z,13.33
2018-03-16T14:18:57.202Z,8.63
2018-03-16T14:21:26.817Z,11.63
2018-03-16T14:23:55.784Z,12.73
2018-03-16T14:26:23.963Z,14.13
2018-03-16T14:28:52.211Z,10.23
2018-03-16T14:31:20.736Z,10.33
2018-03-16T14:33:49.717Z,10.27
2018-03-16T14:36:18.042Z,12.00
2018-03-16T14:38:46.253Z,11.50
2018-03-16T14:41:15.166Z,11.90
2018-03-16T14:43:44.064Z,8.60
2018-03-16T14:46:12.339Z,9.77
2018-03-16T14:48:41.458Z,8.87
2018-03-16T14:51:09.612Z,12.27
2018-03-16T14:53:37.783Z,10.33
2018-03-16T14:56:06.695Z,10.17
2018-03-16T14:58:34.884Z,9.97
2018-03-16T15:01:03.211Z,11.53
2018-03-16T15:03:31.349Z,13.40
2018-03-16T15:05:59.495Z,11.83
2018-03-16T15:08:27.785Z,8.43
2018-03-16T15:10:55.914Z,9.33
2018-03-16T15:13:24.823Z,8.43
2018-03-16T15:15:53.057Z,5.33
2018-03-16T15:18:21.195Z,6.80
2018-03-16T15:20:49.357Z,5.53
2018-03-16T15:23:17.549Z,5.73
2018-03-16T15:25:45.855Z,5.80
2018-03-16T15:28:13.997Z,11.80
2018-03-16T15:30:42.254Z,14.97
2018-03-16T15:33:10.404Z,13.33
2018-03-16T15:35:39.349Z,11.30
2018-03-16T15:38:07.529Z,12.93
2018-03-16T15:40:35.673Z,13.33
2018-03-16T15:43:04.771Z,12.33
2018-03-16T15:45:32.933Z,15.43
2018-03-16T15:48:01.209Z,14.30
2018-03-16T15:50:29.368Z,15.80
2018-03-16T15:52:58.297Z,12.93
2018-03-16T15:55:27.165Z,14.10
2018-03-16T15:57:55.312Z,18.47
2018-03-16T16:00:24.271Z,14.97
2018-03-16T16:02:53.232Z,17.17
2018-03-16T16:05:21.405Z,14.23
2018-03-16T16:07:50.172Z,14.27
2018-03-16T16:10:18.332Z,17.03
2018-03-16T16:12:47.241Z,18.60
2018-03-16T16:15:15.574Z,19.30
2018-03-16T16:17:43.736Z,20.93
2018-03-16T16:20:12.447Z,21.73
2018-03-16T16:22:40.767Z,22.83
2018-03-16T16:25:08.912Z,25.47
2018-03-16T16:27:37.053Z,21.80
2018-03-16T16:30:05.218Z,22.30
2018-03-16T16:32:33.648Z,22.23
2018-03-16T16:35:02.563Z,22.13
2018-03-16T16:37:30.738Z,23.20
2018-03-16T16:39:59.739Z,23.13
2018-03-16T16:42:28.186Z,23.80
2018-03-16T16:44:56.366Z,27.80
2018-03-16T16:47:24.539Z,28.53
2018-03-16T16:49:52.831Z,28.53
2018-03-16T16:52:21.006Z,31.57
2018-03-16T16:54:49.235Z,31.77
2018-03-16T16:57:17.384Z,32.67
2018-03-16T16:59:45.584Z,32.27
2018-03-16T17:02:13.746Z,33.03
2018-03-16T17:04:41.923Z,33.83
2018-03-16T17:07:10.235Z,34.07
2018-03-16T17:09:38.944Z,35.33
2018-03-16T17:12:07.125Z,41.50
2018-03-16T17:14:35.306Z,43.90
2018-03-16T17:17:03.521Z,45.40
2018-03-16T17:19:31.698Z,44.93
2018-03-16T17:22:00.627Z,48.57
2018-03-16T17:24:29.343Z,49.87
2018-03-16T17:26:57.581Z,50.57
2018-03-16T17:29:25.753Z,55.67
2018-03-16T17:31:54.496Z,57.47
2018-03-16T17:34:22.701Z,57.87
2018-03-16T17:36:50.908Z,63.93
2018-03-16T17:39:19.229Z,62.23
2018-03-16T17:41:47.379Z,61.00
2018-03-16T17:44:16.912Z,52.90
2018-03-16T17:46:45.838Z,60.50
2018-03-16T17:49:14.273Z,61.77
2018-03-16T17:51:42.453Z,62.37
2018-03-16T17:54:10.608Z,69.83
2018-03-16T17:56:38.777Z,68.63
2018-03-16T17:59:07.110Z,51.50
2018-03-16T18:01:35.395Z,45.33
2018-03-16T18:04:03.671Z,44.70
2018-03-16T18:06:31.840Z,45.20
2018-03-16T18:09:00.054Z,53.50
2018-03-16T18:11:28.376Z,50.90
2018-03-16T18:13:57.318Z,52.07
2018-03-16T18:16:25.561Z,54.07
2018-03-16T18:18:53.730Z,55.40
2018-03-16T18:21:21.986Z,55.97
2018-03-16T18:23:51.003Z,60.47
2018-03-16T18:26:19.182Z,59.07
2018-03-16T18:28:48.975Z,58.63
2018-03-16T18:31:17.878Z,57.63
2018-03-16T18:33:46.036Z,55.17
2018-03-16T18:36:14.225Z,62.30
2018-03-16T18:38:43.315Z,61.27
2018-03-16T18:41:12.351Z,62.20
2018-03-16T18:43:40.492Z,61.37
2018-03-16T18:46:08.877Z,61.40
2018-03-16T18:48:37.044Z,61.40
2018-03-16T18:51:05.248Z,54.37
2018-03-16T18:53:33.393Z,58.30
2018-03-16T18:56:04.301Z,58.07
2018-03-16T18:58:32.550Z,59.83
2018-03-16T19:01:01.598Z,58.30
2018-03-16T19:03:29.743Z,58.93
2018-03-16T19:05:58.046Z,55.40
2018-03-16T19:08:26.245Z,52.37
2018-03-16T19:10:55.160Z,54.07
2018-03-16T19:13:23.317Z,52.30
2018-03-16T19:15:51.579Z,49.53
2018-03-16T19:18:20.581Z,50.93
2018-03-16T19:20:48.778Z,48.33
2018-03-16T19:23:17.295Z,47.43
2018-03-16T19:25:46.206Z,45.30
2018-03-16T19:28:14.398Z,45.20
2018-03-16T19:30:42.648Z,42.23
2018-03-16T19:33:10.772Z,43.80
2018-03-16T19:35:39.001Z,41.57
2018-03-16T19:38:07.851Z,43.70
2018-03-16T19:40:36.012Z,44.27
2018-03-16T19:43:04.259Z,46.27
2018-03-16T19:45:32.579Z,46.43
2018-03-16T19:48:00.791Z,45.60
2018-03-16T19:50:29.780Z,42.67
2018-03-16T19:52:58.074Z,41.90
2018-03-16T19:55:26.638Z,42.97
2018-03-16T19:57:55.200Z,41.97
2018-03-16T20:00:24.123Z,44.37
2018-03-16T20:02:52.273Z,45.20
2018-03-16T20:05:21.558Z,45.83
2018-03-16T20:07:49.811Z,44.90
2018-03-16T20:10:18.092Z,45.73
2018-03-16T20:12:46.253Z,43.53
2018-03-16T20:15:14.396Z,43.37
2018-03-16T20:17:42.647Z,43.43
2018-03-16T20:20:11.827Z,42.97
2018-03-16T20:22:40.775Z,44.93
2018-03-16T20:25:08.919Z,44.70
2018-03-16T20:27:38.021Z,44.20
2018-03-16T20:30:06.283Z,44.57
2018-03-16T20:32:35.203Z,45.50
2018-03-16T20:35:03.437Z,45.43
2018-03-16T20:37:31.690Z,45.03
2018-03-16T20:39:59.826Z,48.20
2018-03-16T20:42:28.189Z,47.70
2018-03-16T20:45:00.072Z,44.83
2018-03-16T20:47:28.592Z,43.00
2018-03-16T20:49:58.331Z,44.50
2018-03-16T20:52:27.249Z,44.43
2018-03-16T20:54:55.418Z,43.67
2018-03-16T20:57:23.665Z,44.27
2018-03-16T20:59:51.813Z,42.93
2018-03-16T21:02:19.962Z,45.87
2018-03-16T21:04:48.246Z,43.33
2018-03-16T21:07:16.488Z,45.13
2018-03-16T21:09:44.774Z,50.37
2018-03-16T21:12:12.952Z,49.67
2018-03-16T21:14:41.203Z,50.17
2018-03-16T21:17:09.506Z,51.80
2018-03-16T21:19:37.787Z,52.80
2018-03-16T21:22:06.831Z,54.33
2018-03-16T21:24:35.083Z,56.43
2018-03-16T21:27:04.037Z,55.03
2018-03-16T21:29:32.753Z,55.43
2018-03-16T21:32:00.927Z,53.17
2018-03-16T21:34:29.076Z,55.03
2018-03-16T21:36:57.339Z,55.70
2018-03-16T21:39:25.538Z,56.47
2018-03-16T21:41:53.796Z,55.40
2018-03-16T21:44:21.954Z,54.17
2018-03-16T21:46:50.330Z,54.83
2018-03-16T21:49:19.386Z,54.70
2018-03-16T21:51:48.407Z,56.43
2018-03-16T21:54:17.457Z,57.33
2018-03-16T21:56:45.611Z,59.17
2018-03-16T21:59:13.763Z,59.43
2018-03-16T22:01:42.787Z,57.43
2018-03-16T22:04:11.032Z,57.03
2018-03-16T22:06:39.216Z,60.07
2018-03-16T22:09:07.603Z,55.80
2018-03-16T22:11:35.951Z,54.40
2018-03-16T22:14:04.943Z,52.27
2018-03-16T22:16:33.285Z,53.50
2018-03-16T22:19:01.424Z,51.50
2018-03-16T22:21:33.749Z,50.50
2018-03-16T22:24:02.733Z,53.13
2018-03-16T22:26:31.040Z,55.50
2018-03-16T22:28:59.789Z,51.77
2018-03-16T22:31:28.409Z,52.33
2018-03-16T22:33:57.407Z,52.23
2018-03-16T22:36:26.349Z,51.47
2018-03-16T22:38:56.211Z,50.70
2018-03-16T22:41:25.136Z,52.50
2018-03-16T22:43:53.405Z,51.73
2018-03-16T22:46:22.376Z,49.57
2018-03-16T22:48:51.307Z,48.33
2018-03-16T22:51:19.551Z,45.13
2018-03-16T22:53:47.774Z,47.37
2018-03-16T22:56:15.936Z,46.33
2018-03-16T22:58:44.105Z,48.67
2018-03-16T23:01:13.153Z,47.73
2018-03-16T23:03:42.067Z,46.27
2018-03-16T23:06:10.328Z,47.33
2018-03-16T23:08:38.582Z,49.80
2018-03-16T23:11:07.495Z,48.50
2018-03-16T23:13:35.715Z,46.57
2018-03-16T23:16:04.604Z,46.97
2018-03-16T23:18:33.057Z,46.07
2018-03-16T23:21:01.394Z,44.30
2018-03-16T23:23:30.460Z,45.50
2018-03-16T23:25:58.893Z,47.60
2018-03-16T23:28:27.067Z,48.00
2018-03-16T23:30:55.257Z,47.93
2018-03-16T23:33:23.413Z,51.73
2018-03-16T23:35:51.617Z,48.43
2018-03-16T23:38:19.987Z,46.07
2018-03-16T23:40:48.154Z,45.13
2018-03-16T23:43:16.445Z,48.83
2018-03-16T23:45:44.754Z,47.43
2018-03-16T23:48:13.350Z,48.30
2018-03-16T23:50:41.673Z,48.70
2018-03-16T23:53:09.822Z,47.03
2018-03-16T23:55:38.744Z,47.70
2018-03-16T23:58:06.910Z,46.67
